INFORMACIÓN METAR y TAF
METAR FOR GMAG
ADDS - METARS form results

(0836 UTC 15 April 2021)
Data provider http://aviationweather.gov/metar/data/
 
METAR text: GMAG 150800Z 31011KT CAVOK 17/15 Q1012
Conditions at: GMAG (GUELMIM , MA) observed 0800 UTC 15 April 2021
Temperature: 17.0°C (63°F)
Dewpoint: 15.0°C (59°F) [RH = 88%]
Pressure (altimeter): 29.88 inches Hg (1012.0 mb)
Winds: from the NW (310 degrees) at 13 MPH (11 knots; 5.7 m/s)
Visibility: 6 or more miles (10+ km)
Ceiling: ceiling and visibility are OK
Clouds: unknown
Weather: no significant weather observed at this time

Forecast for: GMAG (GUELMIM , MA)
Text: TAF GMAG 150500Z 1506/1612 32012KT 8000 FEW020
Forecast period: 0600 UTC 15 April 2021 to 1200 UTC 16 April 2021
Forecast type: FROM: standard forecast or significant change
Winds: from the NW (320 degrees) at 14 MPH (12 knots; 6.2 m/s)
Visibility: 5 miles (8 km)
Ceiling: at least 12,000 feet AGL
Clouds: few clouds at 2000 feet AGL
Weather: no significant weather forecast for this period

 MAPA DE AEROPUERTO

 INFORMACIÓN DE PISTA

 FRECUANCIAS DEL AEROPUERTO

 RADIO AYUDAS DEL AEROPUERTO



Powered by Virtual Airlines Manager [v2.6.2]